Time;durP1;ratioP1;P1;durP2;ratioP2;P2;SDS_P1;SDS_P2;PMS_P1;PMS_P2;Temp;Humidity;BMP_temperature;BMP_pressure;BME280_temperature;BME280_humidity;BME280_pressure;Samples;Min_cycle;Max_cycle;Signal;HPM_P1;HPM_P2
2022/08/24 00:01:09;;;;;;;2.75;1.75;;;;;;;23.15;66.28;101816.88;6199352;22;20444;-69
2022/08/24 00:03:36;;;;;;;4.55;2.00;;;;;;;23.02;66.68;101810.09;6222621;22;20462;-71
2022/08/24 00:06:03;;;;;;;4.15;1.90;;;;;;;22.96;67.15;101812.91;6224099;22;20382;-71
2022/08/24 00:08:30;;;;;;;3.90;1.85;;;;;;;22.97;67.38;101817.31;6236555;22;20007;-71
2022/08/24 00:10:58;;;;;;;3.58;2.00;;;;;;;22.69;68.08;101809.03;6219415;22;20301;-69
2022/08/24 00:13:24;;;;;;;5.07;2.10;;;;;;;22.79;68.00;101812.41;6206147;22;20336;-69
2022/08/24 00:15:57;;;;;;;3.67;2.10;;;;;;;22.84;67.32;101813.16;6218693;22;20076;-70
2022/08/24 00:18:23;;;;;;;2.38;1.90;;;;;;;22.98;66.80;101816.41;6208408;22;20033;-70
2022/08/24 00:20:48;;;;;;;3.08;2.08;;;;;;;22.98;66.96;101808.44;6219857;22;20046;-71
2022/08/24 00:23:14;;;;;;;5.95;2.13;;;;;;;23.06;66.83;101814.41;6229529;22;20011;-70
2022/08/24 00:25:41;;;;;;;3.40;2.03;;;;;;;23.22;65.99;101815.84;6235154;22;20004;-71
2022/08/24 00:28:06;;;;;;;3.75;2.10;;;;;;;23.24;66.00;101818.44;6223940;22;20442;-70
2022/08/24 00:30:33;;;;;;;4.88;2.20;;;;;;;23.18;66.01;101816.78;6224748;22;20100;-71
2022/08/24 00:32:59;;;;;;;2.90;2.13;;;;;;;23.22;66.03;101817.63;6221507;22;20193;-72
2022/08/24 00:35:30;;;;;;;3.28;1.90;;;;;;;23.32;65.42;101813.81;6227745;22;20062;-70
2022/08/24 00:37:56;;;;;;;3.58;1.98;;;;;;;23.41;65.24;101805.63;6202128;22;20007;-70
2022/08/24 00:40:33;;;;;;;4.00;1.80;;;;;;;23.26;65.71;101816.63;6193710;23;20494;-71
2022/08/24 00:43:03;;;;;;;4.43;2.20;;;;;;;22.88;66.92;101809.53;6195685;23;20359;-70
2022/08/24 00:45:43;;;;;;;4.05;2.00;;;;;;;23.03;66.83;101809.19;6159385;23;20023;-69
2022/08/24 00:48:21;;;;;;;2.25;1.98;;;;;;;23.22;65.88;101815.84;6174977;23;20012;-70
2022/08/24 00:51:07;;;;;;;3.53;2.03;;;;;;;23.22;65.81;101817.63;6186205;23;20008;-71
2022/08/24 00:53:39;;;;;;;3.08;2.03;;;;;;;23.35;65.42;101811.09;6188510;23;20388;-71
2022/08/24 00:56:13;;;;;;;3.45;1.60;;;;;;;23.35;65.24;101809.31;6199429;23;20147;-70
2022/08/24 00:58:46;;;;;;;5.32;2.03;;;;;;;23.27;65.32;101813.94;6182691;23;20409;-71
2022/08/24 01:01:13;;;;;;;5.63;1.77;;;;;;;23.26;65.60;101806.84;6201564;23;20047;-70
2022/08/24 01:03:53;;;;;;;4.88;2.03;;;;;;;23.14;65.80;101806.25;6193333;22;20047;-70
2022/08/24 01:06:18;;;;;;;3.60;2.00;;;;;;;22.97;66.54;101804.00;6204582;23;20093;-70
2022/08/24 01:08:44;;;;;;;2.75;1.70;;;;;;;23.06;66.45;101799.34;6171560;22;20091;-71
2022/08/24 01:11:17;;;;;;;3.53;1.92;;;;;;;23.06;66.35;101804.66;6200537;23;20005;-70
2022/08/24 01:13:46;;;;;;;4.00;1.88;;;;;;;23.11;66.38;101809.00;6176963;23;20020;-71
2022/08/24 01:16:14;;;;;;;3.60;2.00;;;;;;;23.14;66.27;101806.25;6192937;23;20006;-71
2022/08/24 01:18:49;;;;;;;3.00;1.90;;;;;;;23.15;66.36;101806.25;6187514;22;20023;-71
2022/08/24 01:21:36;;;;;;;4.25;2.00;;;;;;;23.10;65.76;101801.94;6203799;23;20049;-69
2022/08/24 01:24:05;;;;;;;2.67;1.80;;;;;;;22.84;67.61;101802.53;6170096;23;20016;-70
2022/08/24 01:26:45;;;;;;;3.90;1.90;;;;;;;22.86;67.86;101809.59;6194024;23;20012;-70
2022/08/24 01:29:21;;;;;;;4.10;2.20;;;;;;;22.83;67.63;101814.06;6188197;23;20151;-70
2022/08/24 01:31:46;;;;;;;2.88;1.95;;;;;;;22.93;67.37;101816.47;6200985;23;20555;-70
2022/08/24 01:34:13;;;;;;;2.58;1.85;;;;;;;22.99;66.77;101810.19;6197483;23;20571;-69
2022/08/24 01:36:45;;;;;;;3.70;2.10;;;;;;;22.87;67.33;101818.44;6164355;23;20024;-70
2022/08/24 01:39:28;;;;;;;4.78;2.17;;;;;;;22.87;67.40;101821.09;6166114;23;20020;-69
2022/08/24 01:41:56;;;;;;;4.22;2.10;;;;;;;22.88;67.43;101820.16;6160817;23;20020;-70
2022/08/24 01:45:08;;;;;;;3.15;1.90;;;;;;;22.93;67.01;101819.16;6204626;23;20439;-69
2022/08/24 01:47:33;;;;;;;2.92;1.88;;;;;;;22.83;67.06;101825.59;6173661;23;20394;-69
2022/08/24 01:50:04;;;;;;;3.33;1.92;;;;;;;22.74;67.88;101824.94;6173046;23;20012;-71
2022/08/24 01:52:32;;;;;;;3.50;1.98;;;;;;;22.69;68.09;101827.63;6204277;23;20004;-70
2022/08/24 01:54:58;;;;;;;3.22;1.70;;;;;;;22.66;68.46;101827.72;6165303;23;20019;-71
2022/08/24 01:57:25;;;;;;;5.53;2.10;;;;;;;22.69;68.44;101832.09;6174924;23;20008;-71
2022/08/24 01:59:51;;;;;;;2.47;1.83;;;;;;;22.71;67.97;101832.91;6197284;23;20016;-69
2022/08/24 02:02:24;;;;;;;2.88;2.00;;;;;;;22.63;68.27;101825.97;6169947;23;20008;-70
2022/08/24 02:04:53;;;;;;;2.42;1.98;;;;;;;22.67;68.44;101829.47;6190483;23;20726;-70
2022/08/24 02:07:18;;;;;;;2.63;1.85;;;;;;;22.70;68.27;101826.72;6168964;23;20044;-69
2022/08/24 02:09:48;;;;;;;3.10;1.90;;;;;;;22.69;68.83;101832.09;6199903;23;20042;-71
2022/08/24 02:12:14;;;;;;;3.90;2.08;;;;;;;22.56;68.92;101835.03;6197155;23;20510;-70
2022/08/24 02:14:39;;;;;;;3.00;1.63;;;;;;;22.55;69.39;101827.94;6194009;23;20008;-70
2022/08/24 02:17:07;;;;;;;4.57;2.05;;;;;;;22.58;69.29;101822.56;6166546;23;20016;-70
2022/08/24 02:19:33;;;;;;;3.10;1.80;;;;;;;22.58;69.01;101822.56;6201043;23;20031;-70
2022/08/24 02:21:59;;;;;;;3.40;1.90;;;;;;;22.58;69.06;101816.34;6171621;23;20148;-69
2022/08/24 02:24:25;;;;;;;3.85;1.80;;;;;;;22.58;69.29;101819.00;6188129;23;20020;-70
2022/08/24 02:26:55;;;;;;;2.70;1.80;;;;;;;22.62;69.26;101823.38;6160491;23;20368;-72
2022/08/24 02:29:32;;;;;;;3.72;1.70;;;;;;;22.65;68.50;101824.19;6175000;23;20016;-70
2022/08/24 02:31:57;;;;;;;2.47;1.90;;;;;;;22.52;68.93;101828.00;6170391;23;20009;-70
2022/08/24 02:34:23;;;;;;;3.50;1.70;;;;;;;22.57;68.18;101827.88;6190161;23;20011;-70
2022/08/24 02:36:52;;;;;;;2.85;1.80;;;;;;;22.54;68.55;101818.22;6151653;23;20211;-70
2022/08/24 02:39:18;;;;;;;4.60;2.10;;;;;;;22.40;69.03;101828.25;6193155;23;20320;-70
2022/08/24 02:41:44;;;;;;;2.40;1.70;;;;;;;22.30;68.98;101828.47;6167289;22;20318;-70
2022/08/24 02:44:11;;;;;;;3.03;1.77;;;;;;;22.30;69.05;101829.34;6197205;23;20523;-70
2022/08/24 02:46:38;;;;;;;3.60;1.90;;;;;;;22.26;69.13;101827.69;6187297;23;20008;-70
2022/08/24 02:49:10;;;;;;;2.90;1.83;;;;;;;22.26;69.23;101827.69;6189371;23;20008;-69
2022/08/24 02:51:36;;;;;;;3.63;1.90;;;;;;;22.16;69.33;101824.31;6174271;23;20008;-69
2022/08/24 02:54:04;;;;;;;2.95;1.88;;;;;;;22.11;69.29;101826.19;6192604;23;20080;-70
2022/08/24 02:56:31;;;;;;;2.15;1.60;;;;;;;22.22;69.40;101834.81;6195437;23;20062;-72
2022/08/24 02:58:58;;;;;;;3.53;1.70;;;;;;;22.26;69.09;101830.34;6185079;23;20015;-70
2022/08/24 03:01:24;;;;;;;2.60;1.85;;;;;;;22.07;69.55;101831.59;6169690;23;20729;-72
2022/08/24 03:03:50;;;;;;;3.25;2.00;;;;;;;21.97;70.32;101827.31;6165270;23;20019;-70
2022/08/24 03:06:16;;;;;;;3.00;2.08;;;;;;;21.88;71.21;101828.34;6191313;23;20016;-69
2022/08/24 03:08:42;;;;;;;2.70;1.95;;;;;;;21.98;71.22;101826.44;6189884;23;20106;-71
2022/08/24 03:11:07;;;;;;;3.33;2.05;;;;;;;22.04;71.03;101823.66;6191473;23;20016;-71
2022/08/24 03:13:34;;;;;;;4.70;1.90;;;;;;;22.09;71.08;101830.63;6195327;23;20004;-70
2022/08/24 03:16:01;;;;;;;3.17;1.80;;;;;;;22.18;70.68;101837.56;6175299;23;20000;-72
2022/08/24 03:18:26;;;;;;;4.53;2.00;;;;;;;22.17;70.89;101836.69;6197620;23;20039;-71
2022/08/24 03:20:53;;;;;;;2.60;1.88;;;;;;;22.22;70.50;101831.28;6165399;23;20556;-69
2022/08/24 03:23:22;;;;;;;2.47;1.85;;;;;;;22.20;70.52;101833.94;6191535;23;20051;-70
2022/08/24 03:25:48;;;;;;;2.55;1.90;;;;;;;22.23;70.31;101825.94;6177730;23;20011;-70
2022/08/24 03:28:13;;;;;;;3.28;1.80;;;;;;;22.27;70.23;101834.72;6197625;23;20003;-71
2022/08/24 03:30:39;;;;;;;2.60;1.80;;;;;;;22.26;70.36;101830.34;6183438;23;20131;-71
2022/08/24 03:33:05;;;;;;;2.80;1.90;;;;;;;22.24;70.82;101832.13;6162380;23;20018;-70
2022/08/24 03:35:32;;;;;;;2.90;1.80;;;;;;;22.20;71.35;101831.28;6195898;23;20027;-72
2022/08/24 03:37:59;;;;;;;2.97;1.80;;;;;;;22.32;71.08;101832.00;6189173;23;20054;-72
2022/08/24 03:40:24;;;;;;;3.05;1.80;;;;;;;22.41;71.15;101832.66;6208648;22;20039;-69
2022/08/24 03:42:51;;;;;;;2.90;1.92;;;;;;;22.51;70.64;101830.69;6210724;22;20656;-69
2022/08/24 03:45:16;;;;;;;2.72;1.80;;;;;;;22.51;70.93;101836.00;6228893;22;20012;-71
2022/08/24 03:47:42;;;;;;;4.13;2.03;;;;;;;22.60;70.91;101833.16;6223080;22;20107;-69
2022/08/24 03:50:08;;;;;;;2.60;1.80;;;;;;;22.63;70.46;101823.31;6224038;22;20091;-70
2022/08/24 03:52:34;;;;;;;3.95;1.90;;;;;;;22.69;70.98;101826.78;6220277;22;20039;-69
2022/08/24 03:55:04;;;;;;;3.58;1.80;;;;;;;22.72;70.86;101826.69;6219645;22;20470;-71
2022/08/24 03:57:30;;;;;;;2.80;1.80;;;;;;;22.75;70.96;101822.22;6204076;22;20015;-71
2022/08/24 03:59:56;;;;;;;3.00;1.80;;;;;;;22.77;70.57;101817.75;6224941;22;20003;-70
2022/08/24 04:02:21;;;;;;;2.67;1.70;;;;;;;22.82;70.64;101828.28;6224717;22;20103;-69
2022/08/24 04:04:46;;;;;;;3.30;2.00;;;;;;;22.83;70.08;101827.38;6222247;22;20043;-69
2022/08/24 04:07:16;;;;;;;2.70;1.85;;;;;;;22.83;69.96;101830.91;6227952;22;20019;-70
2022/08/24 04:09:41;;;;;;;2.88;1.80;;;;;;;22.73;69.81;101828.50;6231289;22;20007;-71
2022/08/24 04:12:07;;;;;;;3.10;1.60;;;;;;;22.72;69.58;101832.03;6228595;22;20008;-71
2022/08/24 04:14:33;;;;;;;9.80;2.17;;;;;;;22.64;70.11;101838.38;6222259;22;20008;-70
2022/08/24 04:16:59;;;;;;;2.65;2.13;;;;;;;22.54;70.88;101839.47;6199399;22;20299;-70
2022/08/24 04:19:26;;;;;;;5.38;2.00;;;;;;;22.58;70.94;101845.59;6225554;22;20039;-70
2022/08/24 04:21:51;;;;;;;4.22;1.75;;;;;;;22.66;70.59;101838.34;6223136;22;20650;-70
2022/08/24 04:24:17;;;;;;;2.47;1.90;;;;;;;22.67;70.31;101838.31;6229465;22;20576;-70
2022/08/24 04:26:43;;;;;;;3.88;1.92;;;;;;;22.69;70.23;101829.44;6214838;22;20016;-70
2022/08/24 04:29:10;;;;;;;6.25;2.10;;;;;;;22.70;70.38;101833.81;6231004;22;20519;-70
2022/08/24 04:31:37;;;;;;;3.08;1.90;;;;;;;22.67;70.50;101837.44;6200548;22;20020;-71
2022/08/24 04:34:02;;;;;;;3.42;1.85;;;;;;;22.72;70.66;101845.31;6206332;22;20011;-70
2022/08/24 04:36:34;;;;;;;3.67;1.80;;;;;;;22.82;70.50;101844.22;6219894;22;20339;-71
2022/08/24 04:39:01;;;;;;;2.45;1.70;;;;;;;22.84;69.70;101843.31;6230206;22;20011;-70
2022/08/24 04:41:27;;;;;;;2.40;2.00;;;;;;;22.86;69.64;101840.63;6197448;22;20040;-70
2022/08/24 04:43:52;;;;;;;2.67;1.80;;;;;;;22.83;69.64;101840.66;6197954;23;20050;-70
2022/08/24 04:46:19;;;;;;;3.35;1.73;;;;;;;22.91;69.09;101842.25;6204755;23;20000;-69
2022/08/24 04:48:52;;;;;;;2.78;1.80;;;;;;;22.85;69.85;101847.72;6187362;22;20083;-71
2022/08/24 04:51:19;;;;;;;2.55;1.67;;;;;;;22.86;69.82;101843.28;6167378;23;20619;-70
2022/08/24 04:53:45;;;;;;;2.95;1.90;;;;;;;22.96;69.40;101852.78;6194345;23;20199;-70
2022/08/24 04:56:15;;;;;;;2.88;1.80;;;;;;;22.95;69.03;101845.72;6177778;23;20459;-70
2022/08/24 04:58:41;;;;;;;3.25;1.98;;;;;;;22.93;68.88;101848.41;6183437;23;20022;-70
2022/08/24 05:01:08;;;;;;;4.15;1.90;;;;;;;22.92;69.53;101859.09;6195133;23;20103;-70
2022/08/24 05:03:34;;;;;;;4.85;2.05;;;;;;;22.94;69.52;101851.94;6198596;23;20035;-70
2022/08/24 05:06:00;;;;;;;3.40;2.20;;;;;;;22.97;69.74;101852.75;6203633;23;20332;-70
2022/08/24 05:08:26;;;;;;;4.20;1.95;;;;;;;23.08;69.18;101852.50;6171358;23;20020;-70
2022/08/24 05:10:51;;;;;;;3.83;1.80;;;;;;;23.18;69.13;101854.03;6191763;23;20004;-71
2022/08/24 05:13:17;;;;;;;4.43;2.10;;;;;;;23.19;69.16;101854.91;6193755;23;20485;-71
2022/08/24 05:15:46;;;;;;;3.47;1.92;;;;;;;23.30;69.29;101851.09;6202739;23;20012;-70
2022/08/24 05:18:14;;;;;;;2.97;1.85;;;;;;;23.41;68.85;101854.41;6200840;23;20069;-70
2022/08/24 05:20:44;;;;;;;3.47;2.05;;;;;;;23.45;68.42;101856.06;6183115;22;20046;-71
2022/08/24 05:23:10;;;;;;;3.10;2.17;;;;;;;23.54;68.24;101857.66;6201772;23;20012;-70
2022/08/24 05:25:36;;;;;;;5.28;2.45;;;;;;;23.70;67.83;101861.69;6194114;22;20020;-70
2022/08/24 05:28:03;;;;;;;3.17;2.20;;;;;;;23.84;66.90;101856.88;6166462;23;20015;-70
2022/08/24 05:30:32;;;;;;;5.20;2.10;;;;;;;23.96;66.61;101858.34;6166957;23;20016;-71
2022/08/24 05:32:58;;;;;;;4.03;2.20;;;;;;;24.03;65.91;101857.25;6193100;23;20549;-70
2022/08/24 05:35:23;;;;;;;4.55;2.30;;;;;;;24.10;65.96;101860.63;6194353;23;20522;-69
2022/08/24 05:37:48;;;;;;;3.50;2.25;;;;;;;24.12;65.88;101865.00;6170193;23;20474;-71
2022/08/24 05:40:17;;;;;;;4.03;2.45;;;;;;;24.23;65.69;101870.06;6182205;22;20016;-70
2022/08/24 05:42:43;;;;;;;4.28;2.45;;;;;;;24.43;65.12;101865.06;6218719;22;20030;-71
2022/08/24 05:45:09;;;;;;;3.40;2.33;;;;;;;24.50;65.14;101863.09;6228148;22;20007;-71
2022/08/24 05:47:35;;;;;;;6.65;2.42;;;;;;;24.63;64.79;101864.50;6229985;22;20149;-71
2022/08/24 05:50:01;;;;;;;3.42;2.35;;;;;;;24.68;64.94;101862.56;6197297;22;20878;-71
2022/08/24 05:52:30;;;;;;;3.78;2.40;;;;;;;24.75;64.91;101866.81;6227299;22;20143;-72
2022/08/24 05:54:57;;;;;;;5.05;2.40;;;;;;;24.92;63.31;101861.00;6222887;22;20019;-70
2022/08/24 05:57:24;;;;;;;4.82;2.97;;;;;;;24.76;62.88;101855.22;6233501;22;20011;-71
2022/08/24 05:59:50;;;;;;;5.15;3.20;;;;;;;24.91;62.26;101852.13;6230758;22;20382;-71
2022/08/24 06:02:16;;;;;;;6.47;2.90;;;;;;;24.99;62.78;101863.44;6234134;22;20578;-70
2022/08/24 06:04:42;;;;;;;4.57;3.20;;;;;;;24.86;63.15;101856.69;6223114;22;20004;-70
2022/08/24 06:07:11;;;;;;;4.90;3.35;;;;;;;24.95;62.26;101861.75;6226106;22;20018;-71
2022/08/24 06:09:38;;;;;;;5.80;3.60;;;;;;;24.98;62.02;101863.47;6226838;22;20011;-70
2022/08/24 06:12:05;;;;;;;6.78;3.47;;;;;;;24.89;62.34;101867.28;6225380;22;20008;-69
2022/08/24 06:14:32;;;;;;;5.55;3.40;;;;;;;24.94;62.01;101861.84;6195455;22;20011;-70
2022/08/24 06:16:57;;;;;;;7.38;3.58;;;;;;;24.99;61.76;101865.22;6195654;22;20537;-72
2022/08/24 06:19:25;;;;;;;5.05;3.25;;;;;;;24.93;61.96;101863.63;6224572;22;20015;-71
2022/08/24 06:21:52;;;;;;;3.70;2.80;;;;;;;25.04;61.58;101866.84;6235304;22;20070;-71
2022/08/24 06:27:19;;;;;;;4.78;3.03;;;;;;;24.95;62.30;101869.75;6200007;22;20012;-72
2022/08/24 06:27:24;;;;;;;8.82;3.10;;;;;;;25.17;61.93;101871.78;6227567;22;20016;-71
2022/08/24 06:30:14;;;;;;;5.80;3.10;;;;;;;25.73;60.84;101873.53;6193186;22;20011;-70
2022/08/24 06:32:42;;;;;;;8.10;2.70;;;;;;;26.85;57.96;101863.22;6188947;22;21055;-71
2022/08/24 06:35:09;;;;;;;6.72;2.63;;;;;;;28.64;52.59;101869.06;6223152;22;20016;-72
2022/08/24 06:37:35;;;;;;;5.50;2.38;;;;;;;30.10;48.04;101869.09;6226423;22;20416;-72
2022/08/24 06:40:04;;;;;;;3.78;2.30;;;;;;;31.46;44.86;101863.34;6197826;22;20019;-72
2022/08/24 06:42:42;;;;;;;5.38;2.38;;;;;;;32.18;43.39;101871.63;6215962;22;20029;-71
2022/08/24 06:45:08;;;;;;;7.40;2.20;;;;;;;32.36;41.61;101869.63;6227889;22;20016;-69
2022/08/24 06:47:34;;;;;;;4.20;2.22;;;;;;;31.65;42.97;101874.84;6231726;22;20015;-71
2022/08/24 06:50:00;;;;;;;7.03;2.15;;;;;;;32.34;42.60;101873.34;6180469;22;20025;-71
2022/08/24 06:52:27;;;;;;;8.13;2.30;;;;;;;33.05;40.15;101871.53;6129712;23;20012;-71
2022/08/24 06:54:53;;;;;;;3.88;2.03;;;;;;;32.54;41.92;101873.88;6121143;23;20063;-72
2022/08/24 06:57:20;;;;;;;4.82;2.42;;;;;;;33.05;40.94;101876.06;6097047;23;20443;-72
2022/08/24 06:59:45;;;;;;;5.65;2.30;;;;;;;33.07;41.33;101872.28;6108758;23;20032;-71
2022/08/24 07:02:14;;;;;;;5.00;2.35;;;;;;;32.48;42.30;101876.06;6135981;23;20436;-70
2022/08/24 07:04:43;;;;;;;6.28;2.10;;;;;;;33.38;40.40;101869.31;6102139;23;20021;-72
2022/08/24 07:07:08;;;;;;;7.47;2.70;;;;;;;33.08;40.61;101870.44;6113324;23;20445;-70
2022/08/24 07:09:35;;;;;;;8.48;3.00;;;;;;;33.73;39.64;101871.56;6132236;23;20048;-71
2022/08/24 07:12:03;;;;;;;5.68;2.92;;;;;;;33.61;39.60;101873.19;6137494;23;20017;-71
2022/08/24 07:14:37;;;;;;;4.32;3.08;;;;;;;33.55;39.57;101868.19;6130714;23;20071;-70
2022/08/24 07:17:03;;;;;;;5.43;3.20;;;;;;;32.91;40.63;101885.94;6115213;23;20417;-71
2022/08/24 07:19:28;;;;;;;9.90;3.60;;;;;;;32.58;42.63;101888.03;6111633;23;20036;-71
2022/08/24 07:21:57;;;;;;;8.70;3.60;;;;;;;33.15;40.79;101879.91;6133349;23;20732;-71
2022/08/24 07:24:24;;;;;;;5.53;3.40;;;;;;;33.88;38.99;101885.84;6105796;23;20762;-71
2022/08/24 07:26:49;;;;;;;6.18;3.20;;;;;;;33.37;40.75;101888.34;6099785;23;20009;-71
2022/08/24 07:29:15;;;;;;;4.75;3.30;;;;;;;33.66;39.80;101889.13;6132543;23;20435;-72
2022/08/24 07:31:42;;;;;;;5.30;2.92;;;;;;;33.30;40.42;101893.28;6142456;23;20005;-70
2022/08/24 07:34:10;;;;;;;7.85;3.40;;;;;;;33.20;40.32;101894.00;6105038;23;20092;-71
2022/08/24 07:36:39;;;;;;;7.72;2.65;;;;;;;33.81;39.21;101896.22;6105858;23;20013;-70
2022/08/24 12:54:47;;;;;;;3.13;1.67;;;;;;;31.32;45.19;101893.78;4924975;27;2578025;-59
2022/08/24 12:57:34;;;;;;;3.17;1.70;;;;;;;31.46;45.89;101898.38;4861869;28;20546;-79
2022/08/24 13:00:24;;;;;;;2.40;1.58;;;;;;;31.47;46.25;101904.66;4892553;28;20034;-78
2022/08/24 13:03:45;;;;;;;3.67;1.65;;;;;;;31.49;46.12;101900.03;4880285;28;20490;-79
2022/08/24 13:06:18;;;;;;;4.50;1.70;;;;;;;31.42;47.48;101899.50;4874059;28;20054;-78
2022/08/24 13:08:48;;;;;;;1.90;1.50;;;;;;;31.40;46.48;101906.81;4889423;28;20031;-78
2022/08/24 13:11:40;;;;;;;1.98;1.33;;;;;;;31.75;46.05;101904.81;4899335;28;20888;-78
2022/08/24 13:14:09;;;;;;;1.83;1.40;;;;;;;32.02;45.18;101908.53;4894085;28;20055;-78
2022/08/24 13:16:50;;;;;;;1.63;1.20;;;;;;;32.02;45.35;101900.44;4894973;28;20054;-80
2022/08/24 13:19:27;;;;;;;4.90;1.45;;;;;;;31.94;46.18;101899.19;4906661;28;20024;-78
2022/08/24 13:21:55;;;;;;;2.47;1.40;;;;;;;31.78;44.82;101901.91;4898013;28;20044;-80
2022/08/24 13:24:29;;;;;;;3.03;1.45;;;;;;;31.69;46.67;101902.47;4895179;28;20219;-79
2022/08/24 13:27:10;;;;;;;3.50;1.20;;;;;;;31.64;46.60;101901.88;4891159;28;20039;-79
2022/08/24 13:29:36;;;;;;;2.85;1.30;;;;;;;31.72;46.87;101905.84;4883886;28;20501;-79
2022/08/24 13:32:03;;;;;;;3.25;1.25;;;;;;;32.00;45.73;101901.50;4889865;28;20102;-80
2022/08/24 13:34:39;;;;;;;2.00;1.17;;;;;;;32.05;45.69;101907.50;4897875;28;20110;-78
2022/08/24 13:37:09;;;;;;;4.40;1.27;;;;;;;32.09;46.07;101903.63;4897788;28;20258;-79
2022/08/24 13:39:40;;;;;;;1.92;1.20;;;;;;;31.70;47.80;101902.38;4891061;28;20354;-79
2022/08/24 13:42:32;;;;;;;5.38;1.23;;;;;;;31.88;46.91;101904.94;4887418;28;20364;-78
2022/08/24 13:45:15;;;;;;;4.38;1.33;;;;;;;32.04;46.12;101903.06;4899996;28;20372;-79
2022/08/24 13:47:48;;;;;;;;;;;;;;;31.94;46.71;101899.19;4895790;28;20067;-77
2022/08/24 13:50:37;;;;;;;2.15;1.30;;;;;;;31.91;46.75;101902.03;4884229;29;20623;-78
2022/08/24 13:53:34;;;;;;;2.28;1.20;;;;;;;31.98;46.36;101903.41;4896483;28;20059;-79
2022/08/24 13:56:31;;;;;;;3.67;1.38;;;;;;;32.19;46.01;101902.19;4897606;28;20050;-78
2022/08/24 13:59:34;;;;;;;2.40;1.13;;;;;;;32.05;45.46;101897.56;4899208;28;20051;-79
2022/08/24 14:02:19;;;;;;;5.68;1.33;;;;;;;32.18;45.66;101904.00;4894841;28;20499;-80
2022/08/24 14:05:00;;;;;;;3.80;1.20;;;;;;;32.24;45.22;101894.66;4896444;28;20055;-77
2022/08/24 14:07:31;;;;;;;4.35;1.40;;;;;;;32.24;45.33;101894.66;4890004;29;20048;-79
2022/08/24 14:10:14;;;;;;;5.95;1.30;;;;;;;32.27;45.41;101899.84;4879971;29;20024;-79
2022/08/24 14:12:50;;;;;;;3.85;1.30;;;;;;;32.31;45.59;101893.31;4892335;29;20427;-80
2022/08/24 14:15:18;;;;;;;3.58;1.35;;;;;;;32.28;45.79;101892.63;4898715;29;20019;-81
2022/08/24 14:17:51;;;;;;;4.80;2.30;;;;;;;32.26;45.07;101891.88;4881465;29;20436;-79
2022/08/24 14:20:35;;;;;;;;;;;;;;;32.13;45.39;101887.22;4892603;29;20044;-78
2022/08/24 14:23:20;;;;;;;2.97;1.50;;;;;;;31.83;46.37;101889.91;4886288;29;20449;-82
2022/08/24 14:25:48;;;;;;;4.93;1.70;;;;;;;31.36;46.45;101887.25;4884621;29;20054;-79
2022/08/24 14:28:41;;;;;;;3.03;1.85;;;;;;;31.94;44.98;101881.19;4889914;29;20356;-78
2022/08/24 14:31:20;;;;;;;3.80;1.90;;;;;;;32.18;44.02;101890.50;4888941;29;20407;-78
2022/08/24 14:34:26;;;;;;;3.15;1.60;;;;;;;32.23;45.84;101888.41;4892440;29;20366;-78
2022/08/24 14:37:17;;;;;;;4.07;1.52;;;;;;;32.10;45.34;101881.97;4888995;29;20479;-78
2022/08/24 14:39:42;;;;;;;2.70;1.70;;;;;;;32.04;45.50;101887.75;4873762;29;20035;-79
2022/08/24 14:42:15;;;;;;;5.68;1.60;;;;;;;32.15;44.36;101890.69;4860578;29;20070;-79
2022/08/24 14:45:04;;;;;;;;;;;;;;;32.11;45.50;101882.84;4891513;29;20032;-80
2022/08/24 14:48:03;;;;;;;3.65;1.55;;;;;;;31.35;47.33;101872.03;4864234;29;19923;-81
2022/08/24 14:50:38;;;;;;;3.60;1.80;;;;;;;31.31;47.12;101878.56;4889645;29;20188;-78
2022/08/24 14:53:26;;;;;;;2.95;1.60;;;;;;;31.33;46.39;101867.72;4890040;29;20043;-80
2022/08/24 14:56:07;;;;;;;3.45;1.30;;;;;;;31.68;46.19;101877.34;4888087;29;20052;-79
2022/08/24 14:58:55;;;;;;;2.78;1.67;;;;;;;31.40;47.06;101878.06;4879702;29;20071;-78
2022/08/24 15:01:35;;;;;;;1.75;1.48;;;;;;;31.44;46.46;101870.66;4867899;29;20848;-78
2022/08/24 15:04:46;;;;;;;3.50;1.60;;;;;;;31.69;45.01;101867.41;4854690;29;20032;-76
2022/08/24 15:07:29;;;;;;;4.22;1.60;;;;;;;31.77;46.17;101870.53;4875557;29;20034;-81
2022/08/24 15:09:57;;;;;;;3.70;1.80;;;;;;;31.65;45.98;101868.56;4860146;29;20760;-81
2022/08/24 15:12:37;;;;;;;4.47;1.80;;;;;;;31.77;46.16;101870.53;4873396;29;20035;-81
2022/08/24 15:15:31;;;;;;;11.57;1.85;;;;;;;31.59;46.43;101868.94;4869458;29;20296;-80
2022/08/24 15:18:00;;;;;;;;;;;;;;;31.77;46.31;101867.84;4864372;29;20496;-79
2022/08/24 15:20:25;;;;;;;4.90;2.47;;;;;;;31.87;46.13;101866.31;4866825;29;20144;-80
2022/08/24 15:23:10;;;;;;;3.47;1.58;;;;;;;31.90;47.38;101862.56;4872519;29;20067;-81
2022/08/24 15:25:58;;;;;;;3.45;1.50;;;;;;;31.84;46.31;101861.09;4859669;29;20068;-79
2022/08/24 15:28:23;;;;;;;1.92;1.50;;;;;;;31.20;48.16;101862.16;4866540;29;20644;-77
2022/08/24 15:31:00;;;;;;;5.65;2.08;;;;;;;31.65;47.04;101868.56;4867923;29;20381;-80
2022/08/24 15:33:28;;;;;;;2.67;1.92;;;;;;;31.34;47.94;101862.25;4869144;29;20107;-79
2022/08/24 15:36:11;;;;;;;3.30;2.30;;;;;;;31.15;47.18;101860.69;4861232;29;20036;-77
2022/08/24 15:38:39;;;;;;;5.00;3.17;;;;;;;31.39;47.26;101856.56;4874279;29;20057;-79
2022/08/24 15:41:11;;;;;;;4.65;2.15;;;;;;;31.31;48.24;101859.72;4865583;29;20058;-79
2022/08/24 15:43:47;;;;;;;5.07;2.50;;;;;;;30.28;49.36;101857.38;4863368;29;20036;-78
2022/08/24 15:46:18;;;;;;;3.90;2.10;;;;;;;30.13;50.60;101863.56;4857633;29;20043;-76
2022/08/24 15:48:46;;;;;;;4.45;2.30;;;;;;;30.67;48.83;101856.19;4865300;29;20043;-78
2022/08/24 15:51:32;;;;;;;4.40;2.53;;;;;;;30.86;48.30;101849.69;4875273;29;20043;-81
2022/08/24 15:54:09;;;;;;;3.40;2.28;;;;;;;30.74;48.78;101854.91;4860109;29;20055;-78
2022/08/24 15:56:44;;;;;;;6.28;2.50;;;;;;;30.81;47.39;101853.59;4853928;29;21834;-75
2022/08/24 15:59:12;;;;;;;4.18;2.55;;;;;;;31.06;47.37;101858.50;4857609;29;20048;-79
2022/08/24 16:04:45;;;;;;;10.57;2.90;;;;;;;30.54;48.77;101853.31;4852211;29;20743;-81
2022/08/24 16:07:23;;;;;;;6.15;2.67;;;;;;;30.25;49.74;101854.84;4873208;29;20032;-80
2022/08/24 16:10:09;;;;;;;5.28;3.17;;;;;;;30.07;48.90;101853.97;4846580;29;20534;-80
2022/08/24 16:12:35;;;;;;;6.78;3.70;;;;;;;30.02;48.74;101853.34;4853258;29;20035;-78
2022/08/24 17:41:25;;;;;;;8.52;3.42;;;;;;;29.20;51.74;101813.66;6072322;22;1421505;-78
2022/08/24 17:43:54;;;;;;;6.43;3.45;;;;;;;29.22;51.40;101822.47;6118464;23;20493;-78
2022/08/24 17:46:21;;;;;;;8.60;3.80;;;;;;;28.84;52.36;101819.00;6087236;23;20029;-78
2022/08/24 17:48:48;;;;;;;10.57;3.50;;;;;;;29.01;52.27;101832.47;6109878;23;20009;-77
2022/08/24 17:51:14;;;;;;;6.10;4.00;;;;;;;28.63;52.54;101827.06;5953244;23;20018;-79
2022/08/24 17:53:40;;;;;;;6.68;3.67;;;;;;;28.93;52.24;101831.97;6034922;23;20310;-78
2022/08/24 17:56:06;;;;;;;8.00;4.20;;;;;;;28.81;52.23;101830.72;6026947;23;20145;-79
2022/08/24 17:59:18;;;;;;;5.35;4.20;;;;;;;28.99;51.56;101831.66;5936001;23;20526;-78
2022/08/24 18:01:18;;;;;;;5.28;3.40;;;;;;;29.05;52.05;101836.72;6031674;23;20018;-79
2022/08/24 18:03:43;;;;;;;7.78;3.60;;;;;;;28.94;51.84;101836.38;6049372;23;20013;-77
2022/08/24 18:06:09;;;;;;;7.43;3.75;;;;;;;28.91;52.27;101840.06;6056902;23;20002;-77
2022/08/24 18:08:35;;;;;;;6.82;3.97;;;;;;;28.91;52.18;101845.44;6037256;23;20014;-80
2022/08/24 18:11:00;;;;;;;6.70;3.92;;;;;;;29.01;51.93;101841.41;6041080;23;20013;-77
2022/08/24 18:13:26;;;;;;;7.35;4.25;;;;;;;29.00;52.38;101841.47;6045027;23;20439;-79
2022/08/24 18:15:51;;;;;;;8.77;4.50;;;;;;;28.65;53.42;101835.94;6052835;23;20427;-78
2022/08/24 18:18:17;;;;;;;8.32;4.70;;;;;;;28.64;53.33;101836.88;6037845;23;20300;-77
2022/08/24 18:20:42;;;;;;;7.45;5.50;;;;;;;28.44;54.25;101844.06;6033902;23;20056;-78
2022/08/24 18:23:08;;;;;;;10.60;5.63;;;;;;;28.40;54.68;101846.03;6037170;23;20746;-77
2022/08/24 18:25:36;;;;;;;10.45;5.45;;;;;;;28.50;54.36;101846.47;6050504;23;20006;-79
2022/08/24 18:28:02;;;;;;;10.52;5.03;;;;;;;28.53;54.60;101847.22;6021046;23;20026;-78
2022/08/24 18:30:30;;;;;;;8.48;5.50;;;;;;;28.36;54.96;101846.25;5940120;23;20498;-77